createdAt,value
2023-01-13T00:00:20.964Z,9.279880
2023-01-13T00:01:20.953Z,9.279920
2023-01-13T00:02:20.974Z,9.279965
2023-01-13T00:03:20.910Z,9.279927
2023-01-13T00:04:20.872Z,9.279981
2023-01-13T00:05:20.850Z,9.279943
2023-01-13T00:06:20.866Z,9.279860
2023-01-13T00:07:20.821Z,9.279868
2023-01-13T00:08:20.807Z,9.279895
2023-01-13T00:09:20.784Z,9.279898
2023-01-13T00:10:20.767Z,9.279906
2023-01-13T00:11:20.776Z,9.279911
2023-01-13T00:12:20.753Z,9.279918
2023-01-13T00:13:20.705Z,9.279963
2023-01-13T00:14:20.693Z,9.279999
2023-01-13T00:15:20.682Z,9.279951
2023-01-13T00:16:20.679Z,9.280057
2023-01-13T00:17:20.676Z,9.279903
2023-01-13T00:18:20.627Z,9.279869
2023-01-13T00:19:20.613Z,9.279991
2023-01-13T00:20:20.590Z,9.279951
2023-01-13T00:21:20.566Z,9.279844
2023-01-13T00:22:20.577Z,9.279888
2023-01-13T00:23:20.539Z,9.279955
2023-01-13T00:24:20.523Z,9.279975
2023-01-13T00:25:20.499Z,9.280072
2023-01-13T00:26:20.506Z,9.279970
2023-01-13T00:27:20.459Z,9.279914
2023-01-13T00:28:20.453Z,9.279789
2023-01-13T00:29:20.423Z,9.280010
2023-01-13T00:30:20.413Z,9.280083
2023-01-13T00:31:20.473Z,9.280046
2023-01-13T00:32:20.382Z,9.279925
2023-01-13T00:33:20.361Z,9.279985
2023-01-13T00:34:20.344Z,9.280027
2023-01-13T00:35:20.327Z,9.279986
2023-01-13T00:36:20.336Z,9.280024
2023-01-13T00:37:20.292Z,9.280026
2023-01-13T00:38:20.277Z,9.280097
2023-01-13T00:39:20.256Z,9.280028
2023-01-13T00:40:20.236Z,9.280066
2023-01-13T00:41:20.243Z,9.280166
2023-01-13T00:42:20.200Z,9.280074
2023-01-13T00:43:20.184Z,9.279934
2023-01-13T00:44:20.168Z,9.279961
2023-01-13T00:45:20.152Z,9.280091
2023-01-13T00:46:20.192Z,9.279972
2023-01-13T00:47:20.105Z,9.280064
2023-01-13T00:48:20.092Z,9.280063
2023-01-13T00:49:20.081Z,9.280066
2023-01-13T00:50:20.059Z,9.280017
2023-01-13T00:51:20.096Z,9.280099
2023-01-13T00:52:20.033Z,9.280196
2023-01-13T00:53:20.005Z,9.279995
2023-01-13T00:54:19.983Z,9.279859
2023-01-13T00:55:19.964Z,9.279963
2023-01-13T00:56:27.288Z,9.279971
2023-01-13T00:57:21.934Z,9.280019
2023-01-13T00:58:19.919Z,9.279965
2023-01-13T00:59:19.896Z,9.279764
2023-01-13T01:00:19.891Z,9.279985
2023-01-13T01:01:20.027Z,9.279925
2023-01-13T01:02:19.892Z,9.280013
2023-01-13T01:03:19.821Z,9.279985
2023-01-13T01:04:19.816Z,9.279839
2023-01-13T01:05:19.792Z,9.279786
2023-01-13T01:06:19.796Z,9.279924
2023-01-13T01:07:19.756Z,9.279858
2023-01-13T01:08:19.751Z,9.279937
2023-01-13T01:09:19.734Z,9.279886
2023-01-13T01:10:19.704Z,9.279844
2023-01-13T01:11:19.714Z,9.279851
2023-01-13T01:12:19.673Z,9.279915
2023-01-13T01:13:19.649Z,9.279877
2023-01-13T01:14:19.631Z,9.279926
2023-01-13T01:15:19.612Z,9.279979
2023-01-13T01:16:19.674Z,9.279901
2023-01-13T01:17:19.589Z,9.279955
2023-01-13T01:18:19.560Z,9.279985
2023-01-13T01:19:19.542Z,9.279945
2023-01-13T01:20:19.523Z,9.279899
2023-01-13T01:21:19.538Z,9.279938
2023-01-13T01:22:19.491Z,9.279851
2023-01-13T01:23:19.497Z,9.279882
2023-01-13T01:24:20.460Z,9.279909
2023-01-13T01:25:19.441Z,9.279991
2023-01-13T01:26:19.428Z,9.279944
2023-01-13T01:27:19.402Z,9.279896
2023-01-13T01:28:19.424Z,9.279830
2023-01-13T01:29:19.371Z,9.279871
2023-01-13T01:30:19.353Z,9.279881
2023-01-13T01:31:19.399Z,9.279902
2023-01-13T01:32:19.319Z,9.279941
2023-01-13T01:33:19.307Z,9.279947
2023-01-13T01:34:19.283Z,9.279831
2023-01-13T01:35:19.272Z,9.279934
2023-01-13T01:36:19.283Z,9.279965
2023-01-13T01:37:19.237Z,9.279935
2023-01-13T01:38:19.212Z,9.279833
2023-01-13T01:39:19.203Z,9.279954
2023-01-13T01:40:19.179Z,9.279829
2023-01-13T01:41:19.197Z,9.279894
2023-01-13T01:42:19.143Z,9.279833
2023-01-13T01:43:19.141Z,9.279976
2023-01-13T01:44:19.102Z,9.279894
2023-01-13T01:45:19.109Z,9.279995
2023-01-13T01:46:19.143Z,9.279952
2023-01-13T01:47:19.051Z,9.279983
2023-01-13T01:48:19.037Z,9.279910
2023-01-13T01:49:19.017Z,9.279931
2023-01-13T01:50:19.004Z,9.279932
2023-01-13T01:51:19.010Z,9.279961
2023-01-13T01:52:18.966Z,9.280054
2023-01-13T01:53:18.974Z,9.279995
2023-01-13T01:54:18.929Z,9.280110
2023-01-13T01:55:18.904Z,9.280026
2023-01-13T01:56:18.917Z,9.279964
2023-01-13T01:57:18.872Z,9.279952
2023-01-13T01:58:18.879Z,9.279904
2023-01-13T01:59:18.844Z,9.279984
2023-01-13T02:00:18.844Z,9.279963
2023-01-13T02:01:18.957Z,9.279976
2023-01-13T02:02:18.876Z,9.280035
2023-01-13T02:03:18.805Z,9.279936
2023-01-13T02:04:18.741Z,9.279954
2023-01-13T02:05:18.735Z,9.279872
2023-01-13T02:06:18.710Z,9.279972
2023-01-13T02:07:18.695Z,9.279917
2023-01-13T02:08:18.709Z,9.279897
2023-01-13T02:09:18.675Z,9.279916
2023-01-13T02:10:18.642Z,9.279959
2023-01-13T02:11:18.623Z,9.279987
2023-01-13T02:12:18.603Z,9.280023
2023-01-13T02:13:18.616Z,9.279871
2023-01-13T02:14:18.570Z,9.279931
2023-01-13T02:15:18.553Z,9.279975
2023-01-13T02:16:18.546Z,9.279993
2023-01-13T02:17:19.565Z,9.279955
2023-01-13T02:18:18.503Z,9.279998
2023-01-13T02:19:18.480Z,9.279905
2023-01-13T02:20:18.468Z,9.279943
2023-01-13T02:21:18.446Z,9.279990
2023-01-13T02:22:18.456Z,9.280116
2023-01-13T02:23:18.411Z,9.279902
2023-01-13T02:24:18.411Z,9.279898
2023-01-13T02:25:18.383Z,9.280028
2023-01-13T02:26:18.368Z,9.280099
2023-01-13T02:27:18.410Z,9.279736
2023-01-13T02:28:18.328Z,9.279774
2023-01-13T02:29:18.314Z,9.279979
2023-01-13T02:30:18.310Z,9.279919
2023-01-13T02:31:18.347Z,9.279971
2023-01-13T02:32:18.289Z,9.279909
2023-01-13T02:33:18.250Z,9.279902
2023-01-13T02:34:18.223Z,9.279831
2023-01-13T02:35:18.203Z,9.279979
2023-01-13T02:36:18.188Z,9.280032
2023-01-13T02:37:18.198Z,9.279988
2023-01-13T02:38:18.154Z,9.279892
2023-01-13T02:39:18.140Z,9.279886
2023-01-13T02:40:18.121Z,9.279854
2023-01-13T02:41:18.110Z,9.279869
2023-01-13T02:42:18.106Z,9.279799
2023-01-13T02:43:18.057Z,9.279762
2023-01-13T02:44:18.046Z,9.279845
2023-01-13T02:45:18.027Z,9.279900
2023-01-13T02:46:18.011Z,9.279929
2023-01-13T02:47:18.024Z,9.280002
2023-01-13T02:48:17.982Z,9.279968
2023-01-13T02:49:17.972Z,9.279985
2023-01-13T02:50:17.972Z,9.279943
2023-01-13T02:51:17.945Z,9.280041
2023-01-13T02:52:17.932Z,9.280016
2023-01-13T02:53:17.896Z,9.279961
2023-01-13T02:54:17.866Z,9.279922
2023-01-13T02:55:17.854Z,9.279845
2023-01-13T02:56:17.838Z,9.279952
2023-01-13T02:57:17.844Z,9.279892
2023-01-13T02:58:17.802Z,9.280067
2023-01-13T02:59:18.756Z,9.280223
2023-01-13T03:00:17.605Z,9.280153
2023-01-13T03:01:17.683Z,9.279991
2023-01-13T03:02:17.712Z,9.280024
2023-01-13T03:03:17.559Z,9.280062
2023-01-13T03:04:17.569Z,9.280114
2023-01-13T03:05:17.565Z,9.280110
2023-01-13T03:06:17.497Z,9.279985
2023-01-13T03:07:17.510Z,9.279983
2023-01-13T03:08:17.474Z,9.279973
2023-01-13T03:09:17.452Z,9.280134
2023-01-13T03:10:17.462Z,9.280180
2023-01-13T03:11:17.407Z,9.280097
2023-01-13T03:12:17.416Z,9.280084
2023-01-13T03:13:17.374Z,9.280082
2023-01-13T03:14:17.351Z,9.280066
2023-01-13T03:15:17.335Z,9.280015
2023-01-13T03:16:17.336Z,9.279953
2023-01-13T03:17:17.345Z,9.280068
2023-01-13T03:18:17.283Z,9.280102
2023-01-13T03:19:17.268Z,9.280148
2023-01-13T03:20:17.260Z,9.280095
2023-01-13T03:21:17.237Z,9.280124
2023-01-13T03:22:17.239Z,9.280226
2023-01-13T03:23:17.198Z,9.280014
2023-01-13T03:24:17.185Z,9.280061
2023-01-13T03:25:17.161Z,9.280163
2023-01-13T03:26:17.152Z,9.280098
2023-01-13T03:27:17.155Z,9.280025
2023-01-13T03:28:17.110Z,9.280041
2023-01-13T03:29:17.098Z,9.280032
2023-01-13T03:30:17.093Z,9.280014
2023-01-13T03:31:17.063Z,9.280041
2023-01-13T03:32:17.069Z,9.280061
2023-01-13T03:33:17.023Z,9.280035
2023-01-13T03:34:17.009Z,9.280069
2023-01-13T03:35:16.991Z,9.279744
2023-01-13T03:36:16.971Z,9.279815
2023-01-13T03:37:16.990Z,9.279895
2023-01-13T03:38:16.951Z,9.280082
2023-01-13T03:39:16.938Z,9.280188
2023-01-13T03:40:16.901Z,9.280184
2023-01-13T03:41:16.894Z,9.279859
2023-01-13T03:42:17.895Z,9.279903
2023-01-13T03:43:16.851Z,9.279987
2023-01-13T03:44:16.836Z,9.279717
2023-01-13T03:45:16.820Z,9.279738
2023-01-13T03:46:16.886Z,9.279915
2023-01-13T03:47:16.809Z,9.279913
2023-01-13T03:48:16.762Z,9.279794
2023-01-13T03:49:16.747Z,9.279825
2023-01-13T03:50:16.739Z,9.279926
2023-01-13T03:51:16.748Z,9.279979
2023-01-13T03:52:16.723Z,9.279828
2023-01-13T03:53:16.678Z,9.279864
2023-01-13T03:54:16.658Z,9.280001
2023-01-13T03:55:16.641Z,9.280030
2023-01-13T03:56:16.625Z,9.280045
2023-01-13T03:57:16.607Z,9.279865
2023-01-13T03:58:16.650Z,9.279860
2023-01-13T03:59:16.573Z,9.279837
2023-01-13T04:00:16.554Z,9.279905
2023-01-13T04:01:16.680Z,9.279871
2023-01-13T04:02:16.613Z,9.279844
2023-01-13T04:03:16.530Z,9.279916
2023-01-13T04:04:16.487Z,9.279926
2023-01-13T04:05:16.473Z,9.279961
2023-01-13T04:06:16.449Z,9.279850
2023-01-13T04:07:16.443Z,9.279949
2023-01-13T04:08:16.445Z,9.279850
2023-01-13T04:09:16.404Z,9.279995
2023-01-13T04:10:16.392Z,9.280024
2023-01-13T04:11:16.373Z,9.280090
2023-01-13T04:12:16.355Z,9.280068
2023-01-13T04:13:16.375Z,9.280148
2023-01-13T04:14:16.319Z,9.280073
2023-01-13T04:15:16.315Z,9.280108
2023-01-13T04:16:16.307Z,9.280046
2023-01-13T04:17:16.280Z,9.279999
2023-01-13T04:18:16.282Z,9.279951
2023-01-13T04:19:16.225Z,9.279837
2023-01-13T04:20:17.234Z,9.279825
2023-01-13T04:21:16.195Z,9.279773
2023-01-13T04:22:16.178Z,9.279993
2023-01-13T04:23:16.194Z,9.279950
2023-01-13T04:24:16.145Z,9.279796
2023-01-13T04:25:16.135Z,9.279918
2023-01-13T04:26:16.122Z,9.279846
2023-01-13T04:27:16.094Z,9.279902
2023-01-13T04:28:16.101Z,9.279936
2023-01-13T04:29:16.058Z,9.280070
2023-01-13T04:30:16.035Z,9.279862
2023-01-13T04:31:16.121Z,9.279871
2023-01-13T04:32:16.029Z,9.279959
2023-01-13T04:33:16.014Z,9.279984
2023-01-13T04:34:15.972Z,9.279958
2023-01-13T04:35:15.954Z,9.279860
2023-01-13T04:36:15.952Z,9.279880
2023-01-13T04:37:15.918Z,9.279736
2023-01-13T04:38:15.926Z,9.279914
2023-01-13T04:39:15.885Z,9.279903
2023-01-13T04:40:15.873Z,9.279876
2023-01-13T04:41:15.847Z,9.279856
2023-01-13T04:42:15.829Z,9.279957
2023-01-13T04:43:16.003Z,9.279929
2023-01-13T04:44:15.793Z,9.279920
2023-01-13T04:45:15.776Z,9.279838
2023-01-13T04:46:15.806Z,9.279907
2023-01-13T04:47:15.741Z,9.279740
2023-01-13T04:48:15.757Z,9.279716
2023-01-13T04:49:15.708Z,9.279838
2023-01-13T04:50:15.687Z,9.279870
2023-01-13T04:51:15.671Z,9.279947
2023-01-13T04:52:15.660Z,9.279949
2023-01-13T04:53:15.668Z,9.279925
2023-01-13T04:54:15.620Z,9.279876
2023-01-13T04:55:15.625Z,9.279954
2023-01-13T04:56:15.583Z,9.279922
2023-01-13T04:57:15.566Z,9.279943
2023-01-13T04:58:15.573Z,9.279946
2023-01-13T04:59:15.535Z,9.279917
2023-01-13T05:00:15.507Z,9.279911
2023-01-13T05:01:15.589Z,9.279784
2023-01-13T05:02:15.561Z,9.279787
2023-01-13T05:03:15.484Z,9.279883
2023-01-13T05:04:15.499Z,9.279880
2023-01-13T05:05:15.421Z,9.279917
2023-01-13T05:06:15.400Z,9.279969
2023-01-13T05:07:15.388Z,9.279854
2023-01-13T05:08:15.395Z,9.279894
2023-01-13T05:09:15.350Z,9.279925
2023-01-13T05:10:15.343Z,9.279960
2023-01-13T05:11:15.314Z,9.280071
2023-01-13T05:12:15.296Z,9.279973
2023-01-13T05:13:15.308Z,9.279930
2023-01-13T05:14:15.269Z,9.279976
2023-01-13T05:15:15.244Z,9.279981
2023-01-13T05:16:15.276Z,9.279950
2023-01-13T05:17:15.205Z,9.279962
2023-01-13T05:18:15.217Z,9.279934
2023-01-13T05:19:15.172Z,9.279905
2023-01-13T05:20:15.167Z,9.279886
2023-01-13T05:21:15.134Z,9.279917
2023-01-13T05:22:15.122Z,9.279909
2023-01-13T05:23:15.121Z,9.279911
2023-01-13T05:24:15.080Z,9.279928
2023-01-13T05:25:15.062Z,9.279971
2023-01-13T05:26:15.047Z,9.279944
2023-01-13T05:27:15.021Z,9.279903
2023-01-13T05:28:15.033Z,9.280057
2023-01-13T05:29:14.993Z,9.279983
2023-01-13T05:30:14.971Z,9.279914
2023-01-13T05:31:15.076Z,9.279987
2023-01-13T05:32:14.935Z,9.279937
2023-01-13T05:33:14.949Z,9.279910
2023-01-13T05:34:14.906Z,9.279988
2023-01-13T05:35:14.888Z,9.280019
2023-01-13T05:36:14.869Z,9.279949
2023-01-13T05:37:14.852Z,9.279951
2023-01-13T05:38:14.878Z,9.279984
2023-01-13T05:39:14.822Z,9.279990
2023-01-13T05:40:14.801Z,9.279952
2023-01-13T05:41:14.784Z,9.279977
2023-01-13T05:42:14.763Z,9.279975
2023-01-13T05:43:14.775Z,9.279949
2023-01-13T05:44:14.730Z,9.279944
2023-01-13T05:45:14.719Z,9.279997
2023-01-13T05:46:14.817Z,9.280021
2023-01-13T05:47:14.687Z,9.280000
2023-01-13T05:48:15.690Z,9.279963
2023-01-13T05:49:14.647Z,9.280080
2023-01-13T05:50:14.625Z,9.280003
2023-01-13T05:51:14.626Z,9.280087
2023-01-13T05:52:14.588Z,9.279979
2023-01-13T05:53:14.610Z,9.280009
2023-01-13T05:54:14.556Z,9.279948
2023-01-13T05:55:14.548Z,9.279984
2023-01-13T05:56:14.523Z,9.280018
2023-01-13T05:57:14.507Z,9.279996
2023-01-13T05:58:14.518Z,9.279948
2023-01-13T05:59:14.467Z,9.279967
2023-01-13T06:00:14.455Z,9.279971
2023-01-13T06:01:14.515Z,9.279904
2023-01-13T06:02:14.423Z,9.279922
2023-01-13T06:03:14.545Z,9.279973
2023-01-13T06:04:14.405Z,9.279986
2023-01-13T06:05:14.364Z,9.279908
2023-01-13T06:06:14.361Z,9.279923
2023-01-13T06:07:14.331Z,9.279986
2023-01-13T06:08:14.311Z,9.280017
2023-01-13T06:09:14.316Z,9.279926
2023-01-13T06:10:14.268Z,9.279969
2023-01-13T06:11:14.270Z,9.280004
2023-01-13T06:12:14.230Z,9.279964
2023-01-13T06:13:14.213Z,9.279833
2023-01-13T06:14:14.219Z,9.279969
2023-01-13T06:15:14.216Z,9.280005
2023-01-13T06:16:14.229Z,9.280048
2023-01-13T06:17:14.139Z,9.280006
2023-01-13T06:18:14.125Z,9.279959
2023-01-13T06:19:14.136Z,9.279918
2023-01-13T06:20:14.086Z,9.279879
2023-01-13T06:21:14.072Z,9.279883
2023-01-13T06:22:14.047Z,9.279834
2023-01-13T06:23:14.035Z,9.280026
2023-01-13T06:24:14.033Z,9.280076
2023-01-13T06:25:14.989Z,9.280132
2023-01-13T06:26:13.973Z,9.280136
2023-01-13T06:27:13.967Z,9.280063
2023-01-13T06:28:13.942Z,9.279992
2023-01-13T06:29:13.944Z,9.279980
2023-01-13T06:30:13.904Z,9.279961
2023-01-13T06:31:13.970Z,9.280013
2023-01-13T06:32:13.873Z,9.279991
2023-01-13T06:33:13.845Z,9.279983
2023-01-13T06:34:13.853Z,9.280054
2023-01-13T06:35:13.821Z,9.280041
2023-01-13T06:36:13.811Z,9.280002
2023-01-13T06:37:13.780Z,9.280042
2023-01-13T06:38:13.750Z,9.280080
2023-01-13T06:39:13.767Z,9.280032
2023-01-13T06:40:13.717Z,9.280038
2023-01-13T06:41:13.696Z,9.280009
2023-01-13T06:42:13.695Z,9.279993
2023-01-13T06:43:15.973Z,9.279984
2023-01-13T06:44:14.671Z,9.279958
2023-01-13T06:45:13.631Z,9.279953
2023-01-13T06:46:13.618Z,9.279944
2023-01-13T06:47:13.590Z,9.279940
2023-01-13T06:48:13.565Z,9.279993
2023-01-13T06:49:13.572Z,9.279995
2023-01-13T06:50:13.535Z,9.280020
2023-01-13T06:51:13.517Z,9.279976
2023-01-13T06:52:13.496Z,9.279900
2023-01-13T06:53:13.502Z,9.279956
2023-01-13T06:54:13.480Z,9.279984
2023-01-13T06:55:13.446Z,9.279976
2023-01-13T06:56:13.437Z,9.279911
2023-01-13T06:57:13.397Z,9.279855
2023-01-13T06:58:13.379Z,9.279923
2023-01-13T06:59:13.401Z,9.280016
2023-01-13T07:00:13.355Z,9.279857
2023-01-13T07:01:13.461Z,9.279975
2023-01-13T07:02:13.412Z,9.279988
2023-01-13T07:03:13.297Z,9.279978
2023-01-13T07:04:13.296Z,9.279967
2023-01-13T07:05:13.255Z,9.279875
2023-01-13T07:06:13.231Z,9.279967
2023-01-13T07:07:13.226Z,9.279955
2023-01-13T07:08:13.189Z,9.279921
2023-01-13T07:09:13.200Z,9.279943
2023-01-13T07:10:13.147Z,9.279942
2023-01-13T07:11:13.142Z,9.280014
2023-01-13T07:12:13.120Z,9.279989
2023-01-13T07:13:13.100Z,9.279840
2023-01-13T07:14:13.858Z,9.279912
2023-01-13T07:15:13.076Z,9.279924
2023-01-13T07:16:13.783Z,9.279812
2023-01-13T07:17:13.028Z,9.279834
2023-01-13T07:18:13.024Z,9.279909
2023-01-13T07:19:13.020Z,9.279838
2023-01-13T07:20:12.967Z,9.279942
2023-01-13T07:21:12.947Z,9.279922
2023-01-13T07:22:12.941Z,9.279937
2023-01-13T07:23:12.916Z,9.279973
2023-01-13T07:24:13.000Z,9.279799
2023-01-13T07:25:12.875Z,9.279790
2023-01-13T07:26:12.886Z,9.279805
2023-01-13T07:27:12.881Z,9.279910
2023-01-13T07:28:12.820Z,9.279939
2023-01-13T07:29:12.834Z,9.279834
2023-01-13T07:30:12.804Z,9.279924
2023-01-13T07:31:12.839Z,9.279956
2023-01-13T07:32:12.748Z,9.279928
2023-01-13T07:33:12.747Z,9.279942
2023-01-13T07:34:12.737Z,9.279959
2023-01-13T07:35:12.702Z,9.279925
2023-01-13T07:36:12.673Z,9.279876
2023-01-13T07:37:12.665Z,9.279854
2023-01-13T07:38:12.648Z,9.279892
2023-01-13T07:39:12.661Z,9.279979
2023-01-13T07:40:12.596Z,9.279784
2023-01-13T07:41:12.584Z,9.279821
2023-01-13T07:42:12.563Z,9.279904
2023-01-13T07:43:12.553Z,9.279950
2023-01-13T07:44:12.553Z,9.279973
2023-01-13T07:45:12.574Z,9.279903
2023-01-13T07:46:12.575Z,9.279874
2023-01-13T07:47:12.476Z,9.279911
2023-01-13T07:48:12.456Z,9.279802
2023-01-13T07:49:12.460Z,9.279884
2023-01-13T07:50:12.427Z,9.279868
2023-01-13T07:51:12.402Z,9.279617
2023-01-13T07:52:12.389Z,9.279766
2023-01-13T07:53:12.369Z,9.279628
2023-01-13T07:54:12.374Z,9.279581
2023-01-13T07:55:12.323Z,9.279606
2023-01-13T07:56:12.310Z,9.279714
2023-01-13T07:57:12.287Z,9.279758
2023-01-13T07:58:12.265Z,9.279948
2023-01-13T07:59:12.281Z,9.279890
2023-01-13T08:00:13.058Z,9.279902
2023-01-13T08:01:13.379Z,9.279936
2023-01-13T08:02:12.511Z,9.280020
2023-01-13T08:03:12.178Z,9.280011
2023-01-13T08:04:12.190Z,9.280008
2023-01-13T08:05:12.136Z,9.279977
2023-01-13T08:06:12.133Z,9.279795
2023-01-13T08:07:12.103Z,9.279812
2023-01-13T08:08:12.086Z,9.279777
2023-01-13T08:09:12.097Z,9.279734
2023-01-13T08:10:12.058Z,9.279839
2023-01-13T08:11:12.037Z,9.279873
2023-01-13T08:12:12.015Z,9.279959
2023-01-13T08:13:11.993Z,9.279963
2023-01-13T08:14:12.029Z,9.280012
2023-01-13T08:15:11.971Z,9.279896
2023-01-13T08:16:11.942Z,9.279893
2023-01-13T08:17:11.937Z,9.280023
2023-01-13T08:18:11.913Z,9.279816
2023-01-13T08:19:11.921Z,9.279938
2023-01-13T08:20:11.869Z,9.279874
2023-01-13T08:21:11.851Z,9.279812
2023-01-13T08:22:11.837Z,9.279892
2023-01-13T08:23:11.829Z,9.279945
2023-01-13T08:24:11.828Z,9.279904
2023-01-13T08:25:11.780Z,9.279882
2023-01-13T08:26:11.761Z,9.280002
2023-01-13T08:27:11.772Z,9.279964
2023-01-13T08:28:11.728Z,9.279879
2023-01-13T08:29:14.837Z,9.279832
2023-01-13T08:30:12.706Z,9.279879
2023-01-13T08:31:11.782Z,9.279894
2023-01-13T08:32:11.639Z,9.279848
2023-01-13T08:33:12.651Z,9.279905
2023-01-13T08:34:11.637Z,9.279869
2023-01-13T08:35:12.608Z,9.279945
2023-01-13T08:36:11.650Z,9.279846
2023-01-13T08:37:11.574Z,9.279936
2023-01-13T08:38:11.572Z,9.279842
2023-01-13T08:39:11.581Z,9.279925
2023-01-13T08:40:11.534Z,9.279958
2023-01-13T08:41:11.501Z,9.279914
2023-01-13T08:42:11.481Z,9.279979
2023-01-13T08:43:11.455Z,9.279987
2023-01-13T08:44:11.471Z,9.279971
2023-01-13T08:45:11.438Z,9.279887
2023-01-13T08:46:11.445Z,9.279915
2023-01-13T08:47:11.395Z,9.279963
2023-01-13T08:48:11.368Z,9.279918
2023-01-13T08:49:11.375Z,9.279839
2023-01-13T08:50:11.374Z,9.279832
2023-01-13T08:51:11.322Z,9.279851
2023-01-13T08:52:11.319Z,9.279922
2023-01-13T08:53:11.276Z,9.279853
2023-01-13T08:54:11.637Z,9.279819
2023-01-13T08:55:11.242Z,9.279806
2023-01-13T08:56:11.221Z,9.279723
2023-01-13T08:57:11.255Z,9.279768
2023-01-13T08:58:15.756Z,9.279868
2023-01-13T08:59:13.200Z,9.279824
2023-01-13T09:00:11.153Z,9.279902
2023-01-13T09:01:11.292Z,9.279908
2023-01-13T09:02:11.316Z,9.279866
2023-01-13T09:03:11.096Z,9.279893
2023-01-13T09:04:11.277Z,9.279807
2023-01-13T09:05:11.100Z,9.279877
2023-01-13T09:06:11.062Z,9.279836
2023-01-13T09:07:11.031Z,9.279810
2023-01-13T09:08:11.028Z,9.279825
2023-01-13T09:09:11.030Z,9.279809
2023-01-13T09:10:10.982Z,9.279795
2023-01-13T09:11:10.986Z,9.279718
2023-01-13T09:12:10.976Z,9.279809
2023-01-13T09:13:10.979Z,9.279868
2023-01-13T09:14:10.935Z,9.279966
2023-01-13T09:15:12.073Z,9.280020
2023-01-13T09:16:10.911Z,9.280003
2023-01-13T09:17:10.882Z,9.280022
2023-01-13T09:18:10.849Z,9.279931
2023-01-13T09:19:10.836Z,9.279905
2023-01-13T09:20:10.848Z,9.279986
2023-01-13T09:21:10.802Z,9.280041
2023-01-13T09:22:10.787Z,9.280007
2023-01-13T09:23:11.372Z,9.279876
2023-01-13T09:24:10.743Z,9.279897
2023-01-13T09:25:10.753Z,9.279854
2023-01-13T09:26:10.710Z,9.279799
2023-01-13T09:27:10.718Z,9.279758
2023-01-13T09:28:10.673Z,9.279978
2023-01-13T09:29:10.657Z,9.280008
2023-01-13T09:30:10.660Z,9.280054
2023-01-13T09:31:10.666Z,9.279905
2023-01-13T09:32:10.604Z,9.279942
2023-01-13T09:33:10.581Z,9.279962
2023-01-13T09:34:10.570Z,9.279903
2023-01-13T09:35:10.572Z,9.279814
2023-01-13T09:36:10.533Z,9.279865
2023-01-13T09:37:10.506Z,9.279974
2023-01-13T09:38:10.516Z,9.279912
2023-01-13T09:39:10.470Z,9.279933
2023-01-13T09:40:11.483Z,9.279927
2023-01-13T09:41:10.450Z,9.279916
2023-01-13T09:42:10.455Z,9.279882
2023-01-13T09:43:10.420Z,9.279977
2023-01-13T09:44:10.394Z,9.279874
2023-01-13T09:45:10.397Z,9.279878
2023-01-13T09:46:10.394Z,9.280023
2023-01-13T09:47:12.037Z,9.280045
2023-01-13T09:48:10.340Z,9.279984
2023-01-13T09:49:10.306Z,9.279909
2023-01-13T09:50:10.315Z,9.279969
2023-01-13T09:51:10.317Z,9.280073
2023-01-13T09:52:10.262Z,9.280192
2023-01-13T09:53:10.236Z,9.280104
2023-01-13T09:54:10.227Z,9.280077
2023-01-13T09:55:10.237Z,9.280041
2023-01-13T09:56:10.209Z,9.280005
2023-01-13T09:57:10.166Z,9.280058
2023-01-13T09:58:10.148Z,9.279965
2023-01-13T09:59:10.132Z,9.279987
2023-01-13T10:00:10.136Z,9.280021
2023-01-13T10:01:10.121Z,9.280032
2023-01-13T10:02:10.080Z,9.279738
2023-01-13T10:03:10.118Z,9.279839
2023-01-13T10:04:10.037Z,9.279762
2023-01-13T10:05:10.104Z,9.279945
2023-01-13T10:06:10.009Z,9.279825
2023-01-13T10:07:09.983Z,9.279851
2023-01-13T10:08:09.971Z,9.279833
2023-01-13T10:09:09.956Z,9.279927
2023-01-13T10:10:09.963Z,9.279943
2023-01-13T10:11:09.921Z,9.279799
2023-01-13T10:12:09.899Z,9.279759
2023-01-13T10:13:09.890Z,9.279817
2023-01-13T10:14:09.856Z,9.279852
2023-01-13T10:15:09.867Z,9.279900
2023-01-13T10:16:09.907Z,9.280014
2023-01-13T10:17:09.808Z,9.279978
2023-01-13T10:18:09.787Z,9.280003
2023-01-13T10:19:09.806Z,9.279712
2023-01-13T10:20:09.782Z,9.279376
2023-01-13T10:21:09.733Z,9.279710
2023-01-13T10:22:09.722Z,9.279825
2023-01-13T10:23:09.811Z,9.279870
2023-01-13T10:24:09.686Z,9.279922
2023-01-13T10:25:09.764Z,9.279899
2023-01-13T10:26:10.034Z,9.279995
2023-01-13T10:27:10.061Z,9.279851
2023-01-13T10:28:09.824Z,9.279796
2023-01-13T10:29:09.819Z,9.279849
2023-01-13T10:30:09.613Z,9.279942
2023-01-13T10:31:09.621Z,9.279859
2023-01-13T10:32:09.553Z,9.279939
2023-01-13T10:33:09.532Z,9.279852
2023-01-13T10:34:09.523Z,9.279903
2023-01-13T10:35:09.540Z,9.279892
2023-01-13T10:36:09.480Z,9.279820
2023-01-13T10:37:09.467Z,9.279662
2023-01-13T10:38:09.455Z,9.280024
2023-01-13T10:39:09.446Z,9.280094
2023-01-13T10:40:09.433Z,9.279843
2023-01-13T10:41:09.407Z,9.279812
2023-01-13T10:42:09.373Z,9.279782
2023-01-13T10:43:09.379Z,9.279881
2023-01-13T10:44:09.854Z,9.280190
2023-01-13T10:45:10.352Z,9.279993
2023-01-13T10:46:09.325Z,9.279903
2023-01-13T10:47:09.289Z,9.279992
2023-01-13T10:48:09.267Z,9.279962
2023-01-13T10:49:09.251Z,9.279583
2023-01-13T10:50:09.779Z,9.279434
2023-01-13T10:51:10.214Z,9.278934
2023-01-13T10:52:09.215Z,9.279595
2023-01-13T10:53:09.180Z,9.279674
2023-01-13T10:54:09.177Z,9.279710
2023-01-13T10:55:09.171Z,9.279631
2023-01-13T10:56:09.132Z,9.279597
2023-01-13T10:57:09.112Z,9.279435
2023-01-13T10:58:09.088Z,9.279428
2023-01-13T10:59:09.075Z,9.279552
2023-01-13T11:00:09.123Z,9.279525
2023-01-13T11:01:09.126Z,9.279562
2023-01-13T11:02:24.381Z,9.279714
2023-01-13T11:03:11.011Z,9.279886
2023-01-13T11:04:09.008Z,9.279836
2023-01-13T11:05:09.032Z,9.279941
2023-01-13T11:06:08.950Z,9.279928
2023-01-13T11:07:08.957Z,9.280147
2023-01-13T11:08:08.946Z,9.279964
2023-01-13T11:09:08.912Z,9.279772
2023-01-13T11:10:08.914Z,9.279850
2023-01-13T11:11:08.871Z,9.279714
2023-01-13T11:12:09.743Z,9.279904
2023-01-13T11:13:08.833Z,9.279913
2023-01-13T11:14:09.322Z,9.279989
2023-01-13T11:15:09.840Z,9.279954
2023-01-13T11:16:08.848Z,9.279858
2023-01-13T11:17:08.781Z,9.279775
2023-01-13T11:18:08.745Z,9.279771
2023-01-13T11:19:08.732Z,9.279694
2023-01-13T11:20:08.733Z,9.279754
2023-01-13T11:21:08.702Z,9.279877
2023-01-13T11:22:08.679Z,9.279922
2023-01-13T11:23:08.659Z,9.279984
2023-01-13T11:24:08.664Z,9.279769
2023-01-13T11:25:08.647Z,9.279742
2023-01-13T11:26:08.599Z,9.279831
2023-01-13T11:27:08.593Z,9.279781
2023-01-13T11:28:08.569Z,9.279716
2023-01-13T11:29:08.559Z,9.279639
2023-01-13T11:30:08.563Z,9.279719
2023-01-13T11:31:08.561Z,9.279738
2023-01-13T11:32:08.507Z,9.279781
2023-01-13T11:33:08.482Z,9.279753
2023-01-13T11:34:08.464Z,9.279770
2023-01-13T11:35:08.471Z,9.279792
2023-01-13T11:36:08.451Z,9.279840
2023-01-13T11:37:08.425Z,9.279880
2023-01-13T11:38:08.401Z,9.279817
2023-01-13T11:39:08.407Z,9.279869
2023-01-13T11:40:08.393Z,9.279821
2023-01-13T11:41:08.349Z,9.279785
2023-01-13T11:42:09.343Z,9.279774
2023-01-13T11:43:08.353Z,9.279799
2023-01-13T11:44:08.299Z,9.279931